createdAt,value
2019-02-02T00:02:02.014Z,31.42
2019-02-02T00:04:32.569Z,31.80
2019-02-02T00:07:03.083Z,31.65
2019-02-02T00:09:33.725Z,31.30
2019-02-02T00:12:04.239Z,32.90
2019-02-02T00:14:34.836Z,32.00
2019-02-02T00:17:05.570Z,33.28
2019-02-02T00:19:36.159Z,32.70
2019-02-02T00:22:08.599Z,33.63
2019-02-02T00:24:39.228Z,33.28
2019-02-02T00:27:09.761Z,31.97
2019-02-02T00:29:40.251Z,32.78
2019-02-02T00:32:10.807Z,31.77
2019-02-02T00:34:41.346Z,34.07
2019-02-02T00:37:11.933Z,33.13
2019-02-02T00:39:42.423Z,32.15
2019-02-02T00:42:12.950Z,32.20
2019-02-02T00:44:43.479Z,34.50
2019-02-02T00:47:14.051Z,33.40
2019-02-02T00:49:44.678Z,31.35
2019-02-02T00:52:15.189Z,33.28
2019-02-02T00:54:45.746Z,32.55
2019-02-02T00:57:16.304Z,32.33
2019-02-02T00:59:46.853Z,33.18
2019-02-02T01:02:17.485Z,31.97
2019-02-02T01:04:48.082Z,32.75
2019-02-02T01:07:19.691Z,33.45
2019-02-02T01:09:50.237Z,33.28
2019-02-02T01:12:20.754Z,33.15
2019-02-02T01:14:51.321Z,32.20
2019-02-02T01:17:21.886Z,32.38
2019-02-02T01:19:52.406Z,33.05
2019-02-02T01:22:22.948Z,34.25
2019-02-02T01:24:53.558Z,33.15
2019-02-02T01:27:24.090Z,35.23
2019-02-02T01:29:54.590Z,32.33
2019-02-02T01:32:25.266Z,31.12
2019-02-02T01:34:55.741Z,31.75
2019-02-02T01:37:26.300Z,33.20
2019-02-02T01:39:56.853Z,32.10
2019-02-02T01:42:27.372Z,31.12
2019-02-02T01:44:57.953Z,33.13
2019-02-02T01:47:28.535Z,31.67
2019-02-02T01:49:59.146Z,32.80
2019-02-02T01:52:29.644Z,33.15
2019-02-02T01:55:00.313Z,31.30
2019-02-02T01:57:30.855Z,35.23
2019-02-02T02:00:01.402Z,33.05
2019-02-02T02:02:31.977Z,33.05
2019-02-02T02:05:02.500Z,33.05
2019-02-02T02:07:33.029Z,33.00
2019-02-02T02:10:03.884Z,31.75
2019-02-02T02:12:34.483Z,35.13
2019-02-02T02:15:05.760Z,33.85
2019-02-02T02:17:36.322Z,33.63
2019-02-02T02:20:08.481Z,31.63
2019-02-02T02:22:41.099Z,31.93
2019-02-02T02:25:14.436Z,32.93
2019-02-02T02:27:44.992Z,32.98
2019-02-02T02:30:23.597Z,34.83
2019-02-02T02:32:54.557Z,33.40
2019-02-02T02:35:25.081Z,31.93
2019-02-02T02:37:57.111Z,31.77
2019-02-02T02:40:28.540Z,32.45
2019-02-02T02:42:59.161Z,31.93
2019-02-02T02:45:30.516Z,33.28
2019-02-02T02:48:01.046Z,33.65
2019-02-02T02:50:33.758Z,35.63
2019-02-02T02:53:04.274Z,33.85
2019-02-02T02:55:34.959Z,33.60
2019-02-02T02:58:06.103Z,31.17
2019-02-02T03:00:36.602Z,31.73
2019-02-02T03:03:07.416Z,34.13
2019-02-02T03:05:37.951Z,32.35
2019-02-02T03:08:08.560Z,34.87
2019-02-02T03:10:39.109Z,34.05
2019-02-02T03:13:09.774Z,33.40
2019-02-02T03:15:40.343Z,33.60
2019-02-02T03:18:10.893Z,30.72
2019-02-02T03:20:41.454Z,33.92
2019-02-02T03:23:11.978Z,32.97
2019-02-02T03:25:42.505Z,34.75
2019-02-02T03:28:13.101Z,33.80
2019-02-02T03:30:43.659Z,30.37
2019-02-02T03:33:14.143Z,33.15
2019-02-02T03:35:44.728Z,31.87
2019-02-02T03:38:15.244Z,31.52
2019-02-02T03:40:45.724Z,31.70
2019-02-02T03:43:16.277Z,31.25
2019-02-02T03:45:46.836Z,32.38
2019-02-02T03:48:17.327Z,31.52
2019-02-02T03:50:47.852Z,30.60
2019-02-02T03:53:18.325Z,32.05
2019-02-02T03:55:49.029Z,33.42
2019-02-02T03:58:19.689Z,32.17
2019-02-02T04:00:50.207Z,33.60
2019-02-02T04:03:20.791Z,30.75
2019-02-02T04:05:51.526Z,35.05
2019-02-02T04:08:22.072Z,33.05
2019-02-02T04:10:52.565Z,33.00
2019-02-02T04:13:23.127Z,31.75
2019-02-02T04:15:53.595Z,32.58
2019-02-02T04:18:24.103Z,32.42
2019-02-02T04:20:54.625Z,35.15
2019-02-02T04:23:25.111Z,34.20
2019-02-02T04:25:58.653Z,33.80
2019-02-02T04:28:29.126Z,34.63
2019-02-02T04:30:59.626Z,32.10
2019-02-02T04:33:30.133Z,31.57
2019-02-02T04:36:00.597Z,32.23
2019-02-02T04:38:31.226Z,31.97
2019-02-02T04:41:01.796Z,33.25
2019-02-02T04:43:32.301Z,34.13
2019-02-02T04:46:02.763Z,32.75
2019-02-02T04:48:33.340Z,34.50
2019-02-02T04:51:03.829Z,32.00
2019-02-02T04:53:34.320Z,35.35
2019-02-02T04:56:04.821Z,32.80
2019-02-02T04:58:35.311Z,31.93
2019-02-02T05:01:05.878Z,33.67
2019-02-02T05:03:36.414Z,35.00
2019-02-02T05:06:06.921Z,33.58
2019-02-02T05:08:37.415Z,33.58
2019-02-02T05:11:07.942Z,35.58
2019-02-02T05:13:38.457Z,34.00
2019-02-02T05:16:08.952Z,35.03
2019-02-02T05:18:39.525Z,35.38
2019-02-02T05:21:10.097Z,34.67
2019-02-02T05:23:40.622Z,34.00
2019-02-02T05:26:11.185Z,35.88
2019-02-02T05:28:41.667Z,36.42
2019-02-02T05:31:12.142Z,34.75
2019-02-02T05:33:42.687Z,33.30
2019-02-02T05:36:13.268Z,37.70
2019-02-02T05:38:43.781Z,34.48
2019-02-02T05:41:14.289Z,32.73
2019-02-02T05:43:44.790Z,34.95
2019-02-02T05:46:15.313Z,36.05
2019-02-02T05:48:45.793Z,34.47
2019-02-02T05:51:16.282Z,34.95
2019-02-02T05:53:46.782Z,38.50
2019-02-02T05:56:17.234Z,37.58
2019-02-02T05:58:47.713Z,35.13
2019-02-02T06:01:20.447Z,35.20
2019-02-02T06:03:51.029Z,37.65
2019-02-02T06:06:21.533Z,36.15
2019-02-02T06:08:52.118Z,35.17
2019-02-02T06:11:22.606Z,35.63
2019-02-02T06:13:53.141Z,37.50
2019-02-02T06:16:23.652Z,35.75
2019-02-02T06:18:54.199Z,34.08
2019-02-02T06:21:24.691Z,35.52
2019-02-02T06:23:55.175Z,36.35
2019-02-02T06:26:25.712Z,34.63
2019-02-02T06:28:56.387Z,35.45
2019-02-02T06:31:26.894Z,35.43
2019-02-02T06:33:57.508Z,35.30
2019-02-02T06:36:27.980Z,35.55
2019-02-02T06:38:58.476Z,33.83
2019-02-02T06:41:28.995Z,38.55
2019-02-02T06:43:59.506Z,33.95
2019-02-02T06:46:30.007Z,36.55
2019-02-02T06:49:01.599Z,34.30
2019-02-02T06:51:32.286Z,36.05
2019-02-02T06:54:02.866Z,37.63
2019-02-02T06:56:33.363Z,34.27
2019-02-02T06:59:03.883Z,35.55
2019-02-02T07:01:34.421Z,34.70
2019-02-02T07:04:07.920Z,34.30
2019-02-02T07:06:40.181Z,36.60
2019-02-02T07:09:11.048Z,34.33
2019-02-02T07:11:41.555Z,34.78
2019-02-02T07:14:12.455Z,38.20
2019-02-02T07:16:48.838Z,36.75
2019-02-02T07:19:19.465Z,35.40
2019-02-02T07:21:49.959Z,35.75
2019-02-02T07:24:20.432Z,33.70
2019-02-02T07:26:50.995Z,35.65
2019-02-02T07:29:21.514Z,39.55
2019-02-02T07:31:52.049Z,33.78
2019-02-02T07:34:22.744Z,36.33
2019-02-02T07:36:53.228Z,36.13
2019-02-02T07:39:24.293Z,38.30
2019-02-02T07:41:54.737Z,34.25
2019-02-02T07:44:25.279Z,35.90
2019-02-02T07:46:55.739Z,35.55
2019-02-02T07:49:26.322Z,36.65
2019-02-02T07:51:56.825Z,37.27
2019-02-02T07:54:28.581Z,36.10
2019-02-02T07:56:59.118Z,36.30
2019-02-02T07:59:29.593Z,36.70
2019-02-02T08:02:00.146Z,39.80
2019-02-02T08:04:30.737Z,36.70
2019-02-02T08:07:01.296Z,35.78
2019-02-02T08:09:31.752Z,36.73
2019-02-02T08:12:02.273Z,36.03
2019-02-02T08:14:32.779Z,38.78
2019-02-02T08:17:03.426Z,36.77
2019-02-02T08:19:34.150Z,35.70
2019-02-02T08:22:04.750Z,37.00
2019-02-02T08:24:35.206Z,38.00
2019-02-02T08:27:05.845Z,37.58
2019-02-02T08:29:36.354Z,37.45
2019-02-02T08:32:07.214Z,37.90
2019-02-02T08:34:37.747Z,37.83
2019-02-02T08:37:08.247Z,37.25
2019-02-02T08:39:38.765Z,36.70
2019-02-02T08:42:09.270Z,35.80
2019-02-02T08:44:39.747Z,36.40
2019-02-02T08:47:10.207Z,36.13
2019-02-02T08:49:40.742Z,36.90
2019-02-02T08:52:13.142Z,38.85
2019-02-02T08:54:43.681Z,36.90
2019-02-02T08:57:14.217Z,39.85
2019-02-02T08:59:44.678Z,38.00
2019-02-02T09:02:15.172Z,37.00
2019-02-02T09:04:45.695Z,37.25
2019-02-02T09:07:16.212Z,41.05
2019-02-02T09:09:46.681Z,40.30
2019-02-02T09:12:17.187Z,38.23
2019-02-02T09:14:47.707Z,39.15
2019-02-02T09:17:18.188Z,39.03
2019-02-02T09:19:48.674Z,39.53
2019-02-02T09:22:19.214Z,40.80
2019-02-02T09:24:51.821Z,41.25
2019-02-02T09:27:21.956Z,40.25
2019-02-02T09:29:52.557Z,40.35
2019-02-02T09:32:23.020Z,40.52
2019-02-02T09:34:53.509Z,39.13
2019-02-02T09:37:24.073Z,41.85
2019-02-02T09:39:54.595Z,41.58
2019-02-02T09:42:25.242Z,41.65
2019-02-02T09:47:24.852Z,39.63
2019-02-02T09:49:55.412Z,41.50
2019-02-02T09:52:25.903Z,41.90
2019-02-02T09:54:56.484Z,41.20
2019-02-02T09:57:27.762Z,41.48
2019-02-02T09:59:58.712Z,41.68
2019-02-02T10:02:29.267Z,42.83
2019-02-02T10:04:59.771Z,41.85
2019-02-02T10:07:30.298Z,40.92
2019-02-02T10:10:00.783Z,41.15
2019-02-02T10:12:31.358Z,41.05
2019-02-02T10:15:01.839Z,42.83
2019-02-02T10:17:32.359Z,42.73
2019-02-02T10:20:02.889Z,44.80
2019-02-02T10:22:33.428Z,42.53
2019-02-02T10:25:04.034Z,42.25
2019-02-02T10:27:34.666Z,42.88
2019-02-02T10:30:07.795Z,42.05
2019-02-02T10:32:38.300Z,40.78
2019-02-02T10:35:09.004Z,41.40
2019-02-02T10:37:39.565Z,42.05
2019-02-02T10:40:10.692Z,43.25
2019-02-02T10:42:41.451Z,40.95
2019-02-02T10:45:12.592Z,40.90
2019-02-02T10:47:43.161Z,43.63
2019-02-02T10:50:15.370Z,45.80
2019-02-02T10:52:46.040Z,42.90
2019-02-02T10:55:16.661Z,43.20
2019-02-02T10:57:47.353Z,41.90
2019-02-02T11:00:27.719Z,43.63
2019-02-02T11:02:58.471Z,43.23
2019-02-02T11:05:30.109Z,41.40
2019-02-02T11:08:00.730Z,38.53
2019-02-02T11:10:32.444Z,40.40
2019-02-02T11:13:03.146Z,42.48
2019-02-02T11:15:33.642Z,42.75
2019-02-02T11:18:05.082Z,41.50
2019-02-02T11:20:36.690Z,39.63
2019-02-02T11:23:07.545Z,40.17
2019-02-02T11:25:38.280Z,41.50
2019-02-02T11:28:09.145Z,42.43
2019-02-02T11:30:39.914Z,41.37
2019-02-02T11:33:10.942Z,42.73
2019-02-02T11:35:41.489Z,39.37
2019-02-02T11:38:12.020Z,42.20
2019-02-02T11:40:42.535Z,43.40
2019-02-02T11:43:13.053Z,42.95
2019-02-02T11:45:43.553Z,44.93
2019-02-02T11:48:15.162Z,43.52
2019-02-02T11:50:45.790Z,40.88
2019-02-02T11:53:16.281Z,42.27
2019-02-02T11:55:46.867Z,39.95
2019-02-02T11:58:17.320Z,41.60
2019-02-02T12:00:47.834Z,43.13
2019-02-02T12:03:18.375Z,42.10
2019-02-02T12:05:48.953Z,41.42
2019-02-02T12:08:19.476Z,42.85
2019-02-02T12:10:50.003Z,42.40
2019-02-02T12:13:20.659Z,43.00
2019-02-02T12:15:51.170Z,44.33
2019-02-02T12:18:21.694Z,39.23
2019-02-02T12:20:52.216Z,42.60
2019-02-02T12:23:22.807Z,40.50
2019-02-02T12:25:53.476Z,42.00
2019-02-02T12:28:23.955Z,43.70
2019-02-02T12:30:54.563Z,42.85
2019-02-02T12:33:25.932Z,41.65
2019-02-02T12:35:56.699Z,43.73
2019-02-02T12:38:27.235Z,41.95
2019-02-02T12:40:59.733Z,42.73
2019-02-02T12:43:30.048Z,42.20
2019-02-02T12:46:00.619Z,40.10
2019-02-02T12:48:32.368Z,40.40
2019-02-02T12:51:04.654Z,41.73
2019-02-02T12:53:35.186Z,43.92
2019-02-02T12:56:05.759Z,44.10
2019-02-02T12:58:36.239Z,43.23
2019-02-02T13:01:06.843Z,41.42
2019-02-02T13:03:37.416Z,42.00
2019-02-02T13:06:07.938Z,41.42
2019-02-02T13:08:38.469Z,45.00
2019-02-02T13:11:08.998Z,43.92
2019-02-02T13:13:42.414Z,43.08
2019-02-02T13:16:11.780Z,41.68
2019-02-02T13:18:42.264Z,44.45
2019-02-02T13:21:12.805Z,41.65
2019-02-02T13:23:43.450Z,42.85
2019-02-02T13:26:14.033Z,39.98
2019-02-02T13:28:44.618Z,41.10
2019-02-02T13:31:15.181Z,41.07
2019-02-02T13:33:45.757Z,39.20
2019-02-02T13:36:16.398Z,41.13
2019-02-02T13:38:46.868Z,41.45
2019-02-02T13:41:17.430Z,40.17
2019-02-02T13:43:47.926Z,38.45
2019-02-02T13:46:18.436Z,38.78
2019-02-02T13:48:51.007Z,39.48
2019-02-02T13:51:21.134Z,40.17
2019-02-02T13:53:51.698Z,38.80
2019-02-02T13:56:22.514Z,40.20
2019-02-02T13:58:53.087Z,39.10
2019-02-02T14:01:23.738Z,38.58
2019-02-02T14:03:54.216Z,39.15
2019-02-02T14:06:24.745Z,38.38
2019-02-02T14:08:55.256Z,38.65
2019-02-02T14:11:25.785Z,37.38
2019-02-02T14:13:56.338Z,39.40
2019-02-02T14:16:26.869Z,39.65
2019-02-02T14:18:57.353Z,40.00
2019-02-02T14:21:28.055Z,39.48
2019-02-02T14:23:58.572Z,37.67
2019-02-02T14:26:29.078Z,39.38
2019-02-02T14:28:59.597Z,39.65
2019-02-02T14:31:30.091Z,39.70
2019-02-02T14:34:00.649Z,38.58
2019-02-02T14:36:31.174Z,38.67
2019-02-02T14:39:01.684Z,40.78
2019-02-02T14:41:32.166Z,40.67
2019-02-02T14:44:02.650Z,39.05
2019-02-02T14:46:33.225Z,37.83
2019-02-02T14:49:03.710Z,38.35
2019-02-02T14:51:34.235Z,37.35
2019-02-02T14:54:05.462Z,37.95
2019-02-02T14:56:36.014Z,36.45
2019-02-02T14:59:06.627Z,39.03
2019-02-02T15:01:37.253Z,37.80
2019-02-02T15:04:07.758Z,39.75
2019-02-02T15:06:38.325Z,37.43
2019-02-02T15:09:09.692Z,36.95
2019-02-02T15:11:41.002Z,35.28
2019-02-02T15:14:11.654Z,36.33
2019-02-02T15:16:42.200Z,39.18
2019-02-02T15:19:12.731Z,36.53
2019-02-02T15:21:43.606Z,36.17
2019-02-02T15:24:14.126Z,33.35
2019-02-02T15:26:44.611Z,34.33
2019-02-02T15:29:15.168Z,35.65
2019-02-02T15:31:45.688Z,34.63
2019-02-02T15:34:16.203Z,34.83
2019-02-02T15:36:46.756Z,32.48
2019-02-02T15:39:17.263Z,34.50
2019-02-02T15:41:52.911Z,33.65
2019-02-02T15:44:20.243Z,34.63
2019-02-02T15:49:20.129Z,34.30
2019-02-02T15:51:51.316Z,34.10
2019-02-02T15:54:22.161Z,36.03
2019-02-02T15:56:54.768Z,33.77
2019-02-02T15:59:25.211Z,35.50
2019-02-02T16:01:55.851Z,33.88
2019-02-02T16:04:26.541Z,34.48
2019-02-02T16:06:57.243Z,36.42
2019-02-02T16:09:28.086Z,35.73
2019-02-02T16:11:59.660Z,38.27
2019-02-02T16:14:30.496Z,38.73
2019-02-02T16:17:39.949Z,39.73
2019-02-02T16:20:20.708Z,38.33
2019-02-02T16:22:58.234Z,38.23
2019-02-02T16:25:48.703Z,39.98
2019-02-02T16:28:38.654Z,38.80
2019-02-02T16:31:12.957Z,40.10
2019-02-02T16:33:43.997Z,38.07
2019-02-02T16:36:14.673Z,38.60
2019-02-02T16:38:45.608Z,35.60
2019-02-02T16:41:16.693Z,36.95
2019-02-02T16:43:48.575Z,38.23
2019-02-02T16:46:20.877Z,37.63
2019-02-02T16:48:51.545Z,36.23
2019-02-02T16:51:22.234Z,36.48
2019-02-02T16:53:52.932Z,37.20
2019-02-02T16:56:23.568Z,39.40
2019-02-02T16:58:54.593Z,38.33
2019-02-02T17:01:25.264Z,39.85
2019-02-02T17:03:56.083Z,38.60
2019-02-02T17:06:26.887Z,39.00
2019-02-02T17:08:57.719Z,37.63
2019-02-02T17:11:28.590Z,37.67
2019-02-02T17:13:59.250Z,36.50
2019-02-02T17:16:29.896Z,36.80
2019-02-02T17:19:00.479Z,36.00
2019-02-02T17:21:31.084Z,37.28
2019-02-02T17:24:01.706Z,36.68
2019-02-02T17:26:32.303Z,36.93
2019-02-02T17:29:02.918Z,37.00
2019-02-02T17:31:33.687Z,39.35
2019-02-02T17:34:04.409Z,38.23
2019-02-02T17:36:35.126Z,36.70
2019-02-02T17:39:07.734Z,36.98
2019-02-02T17:41:38.501Z,39.30
2019-02-02T17:44:09.740Z,37.45
2019-02-02T17:46:47.170Z,38.07
2019-02-02T17:49:15.211Z,37.95
2019-02-02T17:54:21.066Z,37.78
2019-02-02T17:57:00.428Z,36.70
2019-02-02T17:59:31.097Z,36.98
2019-02-02T18:02:02.745Z,35.35
2019-02-02T18:04:40.998Z,39.90
2019-02-02T18:07:06.243Z,39.55
2019-02-02T18:09:37.001Z,38.05
2019-02-02T18:12:07.687Z,39.10
2019-02-02T18:14:40.977Z,39.70
2019-02-02T18:17:14.371Z,37.65
2019-02-02T18:33:32.659Z,39.53
2019-02-02T18:36:03.387Z,40.20
2019-02-02T18:38:34.359Z,37.63
2019-02-02T18:41:05.468Z,43.38
2019-02-02T18:43:39.980Z,39.45
2019-02-02T18:46:20.182Z,38.92
2019-02-02T18:48:51.245Z,39.95
2019-02-02T18:51:22.230Z,41.30
2019-02-02T18:53:53.030Z,38.25
2019-02-02T18:56:23.664Z,40.38
2019-02-02T18:58:58.203Z,45.50
2019-02-02T19:01:29.056Z,46.20
2019-02-02T19:04:04.793Z,42.20
2019-02-02T19:06:40.051Z,43.42
2019-02-02T19:09:27.612Z,41.70
2019-02-02T19:15:02.653Z,40.17
2019-02-02T19:17:33.526Z,36.80
2019-02-02T19:20:08.759Z,39.17
2019-02-02T19:55:29.388Z,40.25
2019-02-02T19:58:00.344Z,40.75
2019-02-02T20:00:33.167Z,42.73
2019-02-02T20:03:05.021Z,41.30
2019-02-02T20:05:36.207Z,43.87
2019-02-02T20:08:07.299Z,42.43
2019-02-02T20:10:38.635Z,42.48
2019-02-02T20:13:10.365Z,42.48
2019-02-02T20:15:41.182Z,41.25
2019-02-02T20:18:12.702Z,41.15
2019-02-02T20:20:44.055Z,41.30
2019-02-02T20:23:14.994Z,39.88
2019-02-02T20:25:46.611Z,41.40
2019-02-02T20:28:17.643Z,40.27
2019-02-02T20:31:56.896Z,37.00
2019-02-02T21:14:51.187Z,42.13
2019-02-02T21:17:21.856Z,42.50
2019-02-02T21:19:52.576Z,41.20
2019-02-02T21:22:23.369Z,37.70
2019-02-02T21:24:54.107Z,35.17
2019-02-02T21:27:25.001Z,37.03
2019-02-02T21:29:56.040Z,34.85
2019-02-02T21:32:26.614Z,37.08
2019-02-02T21:35:02.006Z,35.60
2019-02-02T21:37:33.180Z,36.38
2019-02-02T21:40:30.356Z,36.00
2019-02-02T21:43:01.310Z,35.05
2019-02-02T21:45:32.316Z,35.45
2019-02-02T21:48:02.990Z,35.70
2019-02-02T21:50:33.534Z,35.10
2019-02-02T21:53:04.138Z,35.00
2019-02-02T21:55:34.827Z,34.78
2019-02-02T21:58:05.416Z,36.38
2019-02-02T22:00:41.799Z,35.13
2019-02-02T22:03:12.494Z,35.68
2019-02-02T22:05:42.994Z,34.75
2019-02-02T22:08:13.742Z,35.13
2019-02-02T22:10:44.506Z,34.83
2019-02-02T22:13:15.591Z,37.63
2019-02-02T22:15:46.229Z,35.90
2019-02-02T22:18:16.713Z,35.10
2019-02-02T22:20:47.171Z,34.63
2019-02-02T22:23:17.756Z,36.03
2019-02-02T22:25:49.928Z,33.78
2019-02-02T22:28:20.453Z,32.98
2019-02-02T22:30:51.060Z,32.25
2019-02-02T22:33:21.701Z,33.45
2019-02-02T22:35:52.239Z,33.53
2019-02-02T22:38:22.865Z,33.48
2019-02-02T22:40:53.362Z,35.63
2019-02-02T22:43:23.919Z,31.50
2019-02-02T22:45:54.544Z,35.52
2019-02-02T22:48:25.044Z,31.73
2019-02-02T22:50:55.635Z,33.28
2019-02-02T22:53:26.182Z,32.70
2019-02-02T22:55:56.738Z,32.23
2019-02-02T22:58:27.599Z,33.95
2019-02-02T23:01:33.127Z,32.75
2019-02-02T23:04:59.000Z,31.42
2019-02-02T23:08:39.836Z,30.20
2019-02-02T23:11:33.921Z,33.45
2019-02-02T23:14:40.864Z,31.02
2019-02-02T23:17:11.375Z,31.40
2019-02-02T23:19:41.922Z,29.92
2019-02-02T23:22:12.476Z,31.57
2019-02-02T23:24:42.983Z,30.92
2019-02-02T23:27:13.470Z,30.45
2019-02-02T23:29:44.074Z,28.95
2019-02-02T23:32:14.605Z,33.35
2019-02-02T23:34:45.103Z,39.88
2019-02-02T23:37:15.697Z,31.77
2019-02-02T23:39:46.172Z,33.60
2019-02-02T23:42:16.724Z,31.25
2019-02-02T23:44:47.281Z,30.70
2019-02-02T23:47:17.810Z,32.28
2019-02-02T23:49:48.288Z,28.98
2019-02-02T23:52:18.805Z,28.10
2019-02-02T23:54:49.330Z,29.98
2019-02-02T23:57:19.838Z,28.37
2019-02-02T23:59:50.572Z,30.40
